Time;durP1;ratioP1;P1;durP2;ratioP2;P2;SDS_P1;SDS_P2;PMS_P1;PMS_P2;Temp;Humidity;BMP_temperature;BMP_pressure;BME280_temperature;BME280_humidity;BME280_pressure;Samples;Min_cycle;Max_cycle;Signal;HPM_P1;HPM_P2
2022/02/25 00:02:13;;;;;;;0.30;0.20;;;;;;;6.62;100.00;99576.06;7386619;19;20014;-50
2022/02/25 00:04:38;;;;;;;1.45;0.85;;;;;;;6.62;100.00;99587.91;7386826;19;20458;-50
2022/02/25 00:07:04;;;;;;;0.10;0.10;;;;;;;6.57;100.00;99582.97;7387122;19;20010;-50
2022/02/25 00:09:32;;;;;;;0.20;0.20;;;;;;;6.57;100.00;99601.56;7386491;19;20011;-50
2022/02/25 00:11:58;;;;;;;0.90;0.30;;;;;;;6.58;100.00;99614.19;7388868;19;20494;-50
2022/02/25 00:14:24;;;;;;;0.45;0.45;;;;;;;6.61;100.00;99616.00;7392490;19;20010;-49
2022/02/25 00:16:49;;;;;;;0.15;0.15;;;;;;;6.53;100.00;99625.81;7394809;19;20010;-50
2022/02/25 00:19:15;;;;;;;0.13;0.13;;;;;;;6.56;100.00;99625.66;7394962;19;20021;-49
2022/02/25 00:21:41;;;;;;;0.40;0.20;;;;;;;6.69;100.00;99625.59;7394030;19;20010;-50
2022/02/25 00:24:07;;;;;;;0.10;0.10;;;;;;;6.69;100.00;99639.44;7393459;19;20034;-50
2022/02/25 00:26:32;;;;;;;4.38;0.63;;;;;;;6.68;100.00;99640.66;7392033;19;20349;-50
2022/02/25 00:28:58;;;;;;;0.20;0.20;;;;;;;6.65;100.00;99642.31;7392644;19;20003;-50
2022/02/25 00:31:24;;;;;;;3.75;0.43;;;;;;;6.69;100.00;99647.75;7392716;19;20108;-49
2022/02/25 00:33:49;;;;;;;0.17;0.17;;;;;;;6.76;100.00;99652.97;7394428;19;20022;-50
2022/02/25 00:36:15;;;;;;;0.10;0.10;;;;;;;6.79;100.00;99652.06;7392969;19;20359;-49
2022/02/25 00:38:41;;;;;;;0.25;0.10;;;;;;;6.82;100.00;99659.47;7392077;19;20024;-53
2022/02/25 00:41:06;;;;;;;1.23;0.47;;;;;;;6.76;100.00;99666.81;7390924;19;20066;-50
2022/02/25 00:43:32;;;;;;;0.20;0.20;;;;;;;6.67;100.00;99683.41;7391985;19;20037;-50
2022/02/25 00:45:57;;;;;;;0.25;0.17;;;;;;;6.63;100.00;99677.19;7393842;19;20037;-50
2022/02/25 00:48:23;;;;;;;11.18;1.10;;;;;;;6.62;100.00;99683.97;7392081;19;20014;-49
2022/02/25 00:50:48;;;;;;;0.45;0.45;;;;;;;6.60;100.00;99695.50;7393051;19;20352;-50
2022/02/25 00:53:14;;;;;;;0.20;0.20;;;;;;;6.64;100.00;99706.44;7393165;19;20631;-51
2022/02/25 00:55:39;;;;;;;0.85;0.52;;;;;;;6.67;100.00;99706.28;7393860;19;20445;-52
2022/02/25 00:58:05;;;;;;;24.95;0.60;;;;;;;6.61;100.00;99701.78;7393328;19;20014;-51
2022/02/25 01:00:31;;;;;;;0.20;0.20;;;;;;;6.65;100.00;99703.19;7393844;19;20082;-49
2022/02/25 01:02:57;;;;;;;0.20;0.20;;;;;;;6.70;100.00;99710.13;7392655;19;20025;-49
2022/02/25 01:05:22;;;;;;;0.20;0.20;;;;;;;6.77;100.00;99720.94;7390894;19;20010;-52
2022/02/25 01:07:48;;;;;;;0.57;0.57;;;;;;;6.76;100.00;99727.69;7392513;19;20022;-51
2022/02/25 01:10:16;;;;;;;0.20;0.20;;;;;;;6.70;100.00;99721.22;7393389;19;20498;-51
2022/02/25 01:12:43;;;;;;;3.22;0.40;;;;;;;6.68;100.00;99718.91;7392156;19;19995;-50
2022/02/25 01:15:10;;;;;;;0.30;0.30;;;;;;;6.68;100.00;99740.25;7389746;19;20018;-52
2022/02/25 01:17:36;;;;;;;0.50;0.50;;;;;;;6.69;100.00;99739.81;7391241;19;20007;-52
2022/02/25 01:20:04;;;;;;;2.95;0.60;;;;;;;6.69;100.00;99758.44;7392112;19;20451;-52
2022/02/25 01:22:29;;;;;;;0.10;0.10;;;;;;;6.74;100.00;99761.38;7389565;19;20011;-52
2022/02/25 01:24:55;;;;;;;1.10;0.60;;;;;;;6.71;100.00;99772.56;7390834;19;20375;-54
2022/02/25 01:27:21;;;;;;;0.35;0.35;;;;;;;6.69;100.00;99775.03;7390165;19;20074;-52
2022/02/25 01:29:47;;;;;;;0.10;0.10;;;;;;;6.61;100.00;99787.56;7391248;19;20014;-51
2022/02/25 01:32:13;;;;;;;1.75;0.77;;;;;;;6.56;100.00;99788.16;7392038;19;20482;-52
2022/02/25 01:34:38;;;;;;;1.40;0.40;;;;;;;6.56;100.00;99788.16;7390242;19;20058;-52
2022/02/25 01:37:04;;;;;;;0.40;0.40;;;;;;;6.61;100.00;99798.63;7391536;19;20006;-52
2022/02/25 01:39:30;;;;;;;4.07;0.52;;;;;;;6.56;100.00;99788.16;7391744;19;20015;-51
2022/02/25 01:41:56;;;;;;;0.30;0.30;;;;;;;6.47;100.00;99801.91;7391040;19;20041;-52
2022/02/25 01:44:24;;;;;;;14.00;0.80;;;;;;;6.47;100.00;99801.91;7393101;19;20007;-51
2022/02/25 01:46:58;;;;;;;0.45;0.45;;;;;;;6.38;100.00;99799.06;7389930;19;20043;-50
2022/02/25 01:49:24;;;;;;;0.52;0.50;;;;;;;6.34;100.00;99810.25;7392154;19;20018;-50
2022/02/25 01:52:02;;;;;;;0.20;0.20;;;;;;;6.27;100.00;99815.25;7391674;19;20006;-52
2022/02/25 01:54:29;;;;;;;19.20;1.45;;;;;;;6.25;100.00;99829.53;7391142;19;20014;-51
2022/02/25 01:56:55;;;;;;;0.43;0.43;;;;;;;6.30;100.00;99819.88;7390975;19;20014;-52
2022/02/25 01:59:22;;;;;;;0.50;0.50;;;;;;;6.30;100.00;99825.41;7390825;19;20015;-50
2022/02/25 02:01:48;;;;;;;0.10;0.10;;;;;;;6.26;100.00;99827.53;7390878;19;20467;-50
2022/02/25 02:04:14;;;;;;;7.50;0.70;;;;;;;6.22;100.00;99835.16;7390909;19;20014;-51
2022/02/25 02:06:40;;;;;;;0.40;0.40;;;;;;;6.17;100.00;99832.97;7389039;19;20010;-52
2022/02/25 02:09:06;;;;;;;0.32;0.32;;;;;;;6.18;100.00;99846.34;7390792;19;20021;-51
2022/02/25 02:11:35;;;;;;;0.20;0.20;;;;;;;6.13;100.00;99846.16;7389543;19;20027;-51
2022/02/25 02:14:04;;;;;;;6.07;1.73;;;;;;;6.06;100.00;99849.91;7390907;19;20025;-52
2022/02/25 02:16:29;;;;;;;0.68;0.68;;;;;;;6.03;100.00;99857.09;7388331;19;20010;-50
2022/02/25 02:18:55;;;;;;;3.92;0.73;;;;;;;6.04;100.00;99858.63;7390805;19;20013;-50
2022/02/25 02:21:27;;;;;;;0.20;0.20;;;;;;;6.09;100.00;99873.91;7388572;19;20006;-50
2022/02/25 02:23:54;;;;;;;0.50;0.20;;;;;;;6.16;100.00;99878.41;7388806;19;20038;-51
2022/02/25 02:26:20;;;;;;;0.40;0.40;;;;;;;6.19;100.00;99874.78;7388691;19;20007;-50
2022/02/25 02:28:46;;;;;;;0.20;0.20;;;;;;;6.17;100.00;99882.75;7389846;19;20461;-51
2022/02/25 02:31:12;;;;;;;0.20;0.20;;;;;;;6.27;100.00;99878.84;7388775;19;20010;-51
2022/02/25 02:33:38;;;;;;;4.18;0.30;;;;;;;6.34;100.00;99870.31;7388983;19;20007;-51
2022/02/25 02:36:04;;;;;;;0.38;0.38;;;;;;;6.41;100.00;99865.31;7387877;19;20635;-51
2022/02/25 02:38:30;;;;;;;1.35;0.47;;;;;;;6.46;100.00;99883.34;7389035;19;20011;-50
2022/02/25 02:40:56;;;;;;;0.10;0.10;;;;;;;6.48;100.00;99878.13;7389398;19;20014;-51
2022/02/25 02:43:22;;;;;;;0.17;0.17;;;;;;;6.46;100.00;99888.88;7388290;19;20032;-50
2022/02/25 02:45:48;;;;;;;0.10;0.10;;;;;;;6.39;100.00;99886.34;7389543;19;20542;-50
2022/02/25 02:48:14;;;;;;;9.95;1.00;;;;;;;6.39;100.00;99894.66;7389535;19;20010;-51
2022/02/25 02:50:40;;;;;;;0.10;0.10;;;;;;;6.38;100.00;99904.16;7390172;19;20014;-51
2022/02/25 02:53:05;;;;;;;5.47;0.85;;;;;;;6.45;100.00;99898.41;7387869;19;20043;-51
2022/02/25 02:55:31;;;;;;;0.38;0.35;;;;;;;6.40;100.00;99901.72;7388073;19;20077;-51
2022/02/25 02:57:57;;;;;;;11.60;0.95;;;;;;;6.41;100.00;99908.81;7386917;19;20070;-51
2022/02/25 03:00:22;;;;;;;2.40;0.60;;;;;;;6.53;100.00;99910.75;7389305;19;20014;-51
2022/02/25 03:02:48;;;;;;;0.90;0.65;;;;;;;6.52;100.00;99920.28;7388206;19;20628;-51
2022/02/25 03:05:16;;;;;;;0.50;0.40;;;;;;;6.42;100.00;99921.41;7388100;19;20009;-51
2022/02/25 03:07:41;;;;;;;0.10;0.10;;;;;;;6.46;100.00;99924.81;7386114;19;20009;-50
2022/02/25 03:10:07;;;;;;;4.47;0.50;;;;;;;6.54;100.00;99928.91;7389736;19;20007;-51
2022/02/25 03:12:33;;;;;;;0.25;0.25;;;;;;;6.62;100.00;99930.22;7387812;19;20033;-51
2022/02/25 03:14:59;;;;;;;1.02;1.00;;;;;;;6.68;100.00;99945.03;7388802;19;20006;-50
2022/02/25 03:17:24;;;;;;;15.90;1.58;;;;;;;6.74;100.00;99943.22;7387770;19;20010;-51
2022/02/25 03:19:50;;;;;;;7.88;1.23;;;;;;;6.87;100.00;99946.75;7389812;19;20002;-51
2022/02/25 03:22:16;;;;;;;3.30;0.90;;;;;;;6.91;100.00;99941.84;7388864;19;20050;-53
2022/02/25 03:24:54;;;;;;;0.10;0.10;;;;;;;6.96;100.00;99957.91;7386124;19;20033;-51
2022/02/25 03:27:20;;;;;;;0.38;0.38;;;;;;;7.00;100.00;99944.69;7387461;19;20010;-50
2022/02/25 03:29:46;;;;;;;1.95;0.95;;;;;;;7.08;100.00;99946.00;7389334;19;20026;-50
2022/02/25 03:32:11;;;;;;;0.22;0.22;;;;;;;7.09;100.00;99952.31;7387456;19;20365;-51
2022/02/25 03:34:38;;;;;;;0.68;0.68;;;;;;;7.07;100.00;99958.31;7388000;19;20022;-50
2022/02/25 03:37:04;;;;;;;3.83;0.40;;;;;;;7.16;100.00;99961.16;7388321;19;20014;-51
2022/02/25 03:39:30;;;;;;;1.23;0.70;;;;;;;7.21;100.00;99971.63;7388799;19;20014;-52
2022/02/25 03:41:55;;;;;;;2.28;0.70;;;;;;;7.22;100.00;99967.66;7385223;19;20027;-51
2022/02/25 03:44:21;;;;;;;0.50;0.50;;;;;;;7.23;100.00;99973.97;7387874;19;20482;-50
2022/02/25 03:46:47;;;;;;;0.20;0.20;;;;;;;7.22;100.00;99981.50;7387849;19;20450;-50
2022/02/25 03:49:16;;;;;;;1.08;0.73;;;;;;;7.22;100.00;99989.81;7390090;19;20014;-51
2022/02/25 03:51:42;;;;;;;15.27;0.68;;;;;;;7.23;100.00;99980.28;7388779;19;20017;-51
2022/02/25 03:54:07;;;;;;;2.47;1.00;;;;;;;7.28;100.00;99988.00;7388104;19;20010;-51
2022/02/25 03:56:33;;;;;;;0.10;0.10;;;;;;;7.29;100.00;99984.03;7385197;19;20109;-51
2022/02/25 03:58:59;;;;;;;7.22;0.47;;;;;;;7.33;100.00;99995.75;7388185;19;20348;-51
2022/02/25 04:01:24;;;;;;;1.10;0.68;;;;;;;7.34;100.00;99991.75;7385988;19;20018;-51
2022/02/25 04:03:51;;;;;;;0.10;0.10;;;;;;;7.33;100.00;100000.50;7386430;19;20495;-50
2022/02/25 04:06:17;;;;;;;0.10;0.10;;;;;;;7.30;100.00;100001.41;7386838;19;20019;-49
2022/02/25 04:08:45;;;;;;;0.22;0.22;;;;;;;7.35;100.00;100004.38;7388062;19;20033;-51
2022/02/25 04:11:11;;;;;;;0.43;0.43;;;;;;;7.35;100.00;100009.91;7386668;19;20374;-51
2022/02/25 04:13:39;;;;;;;8.73;0.90;;;;;;;7.36;100.00;100014.22;7385704;19;20018;-50
2022/02/25 04:16:05;;;;;;;0.20;0.20;;;;;;;7.36;100.00;100022.53;7386167;19;20007;-50
2022/02/25 04:18:31;;;;;;;1.40;0.60;;;;;;;7.43;100.00;100022.28;7385097;19;20027;-50
2022/02/25 04:20:57;;;;;;;0.50;0.50;;;;;;;7.41;100.00;100021.19;7385500;19;20010;-51
2022/02/25 04:23:22;;;;;;;1.00;0.93;;;;;;;7.43;100.00;100032.59;7385827;19;20024;-50
2022/02/25 04:25:48;;;;;;;0.90;0.32;;;;;;;7.41;100.00;100038.59;7386299;19;20018;-51
2022/02/25 04:28:14;;;;;;;4.60;0.50;;;;;;;7.41;100.00;100035.81;7386530;19;20066;-51
2022/02/25 04:30:39;;;;;;;0.20;0.20;;;;;;;7.45;100.00;100047.56;7387147;19;20014;-50
2022/02/25 04:33:05;;;;;;;0.52;0.40;;;;;;;7.50;100.00;100049.75;7386933;19;20466;-50
2022/02/25 04:35:31;;;;;;;0.77;0.52;;;;;;;7.53;100.00;100057.19;7384866;19;20026;-50
2022/02/25 04:37:56;;;;;;;1.15;0.30;;;;;;;7.48;100.00;100057.75;7386505;19;20003;-50
2022/02/25 04:40:22;;;;;;;0.40;0.40;;;;;;;7.49;100.00;100064.81;7386721;19;20014;-50
2022/02/25 04:42:48;;;;;;;0.20;0.20;;;;;;;7.45;100.00;100074.50;7386118;19;20454;-51
2022/02/25 04:45:14;;;;;;;6.80;2.05;;;;;;;7.45;100.00;100069.72;7382980;19;20002;-51
2022/02/25 04:47:41;;;;;;;0.80;0.35;;;;;;;7.43;100.00;100071.38;7384162;19;20038;-50
2022/02/25 04:50:09;;;;;;;1.85;0.50;;;;;;;7.34;100.00;100080.38;7385567;19;20018;-84
2022/02/25 04:52:34;;;;;;;0.63;0.25;;;;;;;7.28;100.00;100075.88;7380379;19;20486;-84
2022/02/25 04:55:00;;;;;;;0.88;0.60;;;;;;;7.20;100.00;100082.88;7383064;19;20015;-84
2022/02/25 04:57:26;;;;;;;2.40;0.80;;;;;;;7.17;100.00;100083.78;7383295;19;20468;-84
2022/02/25 04:59:51;;;;;;;0.10;0.10;;;;;;;7.16;100.00;100088.53;7391753;19;20029;-84
2022/02/25 05:02:17;;;;;;;5.15;0.57;;;;;;;7.11;100.00;100096.63;7389281;19;20010;-84
2022/02/25 05:04:42;;;;;;;0.13;0.13;;;;;;;7.15;100.00;100100.81;7390172;19;20015;-84
2022/02/25 05:07:08;;;;;;;6.45;0.80;;;;;;;7.16;100.00;100107.16;7397490;19;20615;-84
2022/02/25 05:09:34;;;;;;;1.45;1.00;;;;;;;7.12;100.00;100112.81;7399652;19;20011;-84
2022/02/25 05:12:00;;;;;;;1.65;0.85;;;;;;;7.07;100.00;100110.59;7398360;19;20017;-84
2022/02/25 05:22:39;;;;;;;0.95;0.50;;;;;;;7.05;100.00;100120.56;7397546;19;20353;-84
2022/02/25 05:25:05;;;;;;;0.47;0.47;;;;;;;7.02;100.00;100125.00;7397713;19;20018;-83
2022/02/25 05:27:30;;;;;;;5.72;0.45;;;;;;;7.01;100.00;100136.53;7396325;19;20031;-84
2022/02/25 05:29:56;;;;;;;2.10;0.55;;;;;;;6.94;100.00;100128.44;7396071;19;20007;-81
2022/02/25 05:32:22;;;;;;;0.10;0.10;;;;;;;6.90;100.00;100134.09;7395037;19;20090;-83
2022/02/25 05:34:47;;;;;;;0.90;0.30;;;;;;;6.83;100.00;100137.09;7394890;19;20093;-83
2022/02/25 05:37:13;;;;;;;1.30;0.75;;;;;;;6.84;100.00;100142.16;7398681;19;20500;-82
2022/02/25 05:39:38;;;;;;;2.47;0.73;;;;;;;6.88;100.00;100142.84;7399246;19;20010;-82
2022/02/25 05:42:04;;;;;;;1.00;0.20;;;;;;;6.98;100.00;100154.78;7394075;19;20032;-81
2022/02/25 05:44:30;;;;;;;3.60;1.33;;;;;;;7.01;100.00;100145.59;7392021;19;20337;-82
2022/02/25 05:46:55;;;;;;;7.32;0.40;;;;;;;7.04;100.00;100141.94;7394265;19;20018;-85
2022/02/25 05:49:23;;;;;;;0.52;0.35;;;;;;;7.11;100.00;100141.72;7398659;19;20025;-84
2022/02/25 05:51:49;;;;;;;0.63;0.30;;;;;;;7.13;100.00;100146.81;7396729;19;20034;-85
2022/02/25 05:54:14;;;;;;;0.57;0.45;;;;;;;7.11;100.00;100160.31;7393815;19;20098;-84
2022/02/25 05:56:39;;;;;;;0.80;0.43;;;;;;;7.03;100.00;100159.78;7395143;19;20389;-85
2022/02/25 05:59:05;;;;;;;0.82;0.45;;;;;;;7.01;100.00;100155.91;7397610;19;20468;-84
2022/02/25 06:01:31;;;;;;;10.40;1.15;;;;;;;6.96;100.00;100157.22;7394393;19;20011;-85
2022/02/25 06:03:57;;;;;;;8.23;0.50;;;;;;;6.91;100.00;100160.53;7395703;19;20018;-86
2022/02/25 06:06:22;;;;;;;0.20;0.20;;;;;;;6.91;100.00;100159.78;7396924;19;20046;-86
2022/02/25 06:08:48;;;;;;;10.80;0.45;;;;;;;6.90;100.00;100170.09;7397865;19;20015;-85
2022/02/25 06:11:13;;;;;;;0.38;0.38;;;;;;;6.83;100.00;100173.06;7394795;19;20017;-85
2022/02/25 06:13:39;;;;;;;0.40;0.40;;;;;;;6.77;100.00;100191.44;7394194;19;20592;-85
2022/02/25 06:16:04;;;;;;;0.55;0.55;;;;;;;6.73;100.00;100199.88;7395418;19;20010;-81
2022/02/25 06:18:30;;;;;;;2.67;1.58;;;;;;;6.76;100.00;100212.81;7388121;19;20015;-80
2022/02/25 06:20:55;;;;;;;11.85;1.50;;;;;;;6.76;100.00;100203.72;7386608;19;20026;-81
2022/02/25 06:23:24;;;;;;;5.85;0.57;;;;;;;6.72;100.00;100211.34;7389107;19;20017;-82
2022/02/25 06:25:50;;;;;;;11.95;2.65;;;;;;;6.68;100.00;100211.47;7388556;19;20019;-81
2022/02/25 06:28:16;;;;;;;1.55;1.48;;;;;;;6.72;100.00;100216.91;7391684;19;20015;-80
2022/02/25 06:30:42;;;;;;;0.30;0.30;;;;;;;6.71;100.00;100226.44;7392222;19;20027;-81
2022/02/25 06:33:07;;;;;;;2.55;1.48;;;;;;;6.68;100.00;100235.59;7389012;19;20018;-81
2022/02/25 06:35:33;;;;;;;3.58;1.10;;;;;;;6.71;100.00;100237.50;7389485;19;20007;-81
2022/02/25 06:37:59;;;;;;;3.47;0.47;;;;;;;6.71;100.00;100231.97;7389648;19;20018;-81
2022/02/25 06:40:25;;;;;;;27.30;1.75;;;;;;;6.70;100.00;100235.94;7393308;19;20504;-81
2022/02/25 06:42:51;;;;;;;14.70;2.35;;;;;;;6.69;100.00;100245.47;7390056;19;20010;-80
2022/02/25 06:45:17;;;;;;;6.90;0.80;;;;;;;6.72;100.00;100261.16;7388807;19;20042;-87
2022/02/25 06:47:44;;;;;;;2.00;1.60;;;;;;;6.74;100.00;100265.06;7394691;19;20019;-83
2022/02/25 06:50:10;;;;;;;2.85;0.95;;;;;;;6.81;100.00;100275.16;7396525;19;20338;-85
2022/02/25 06:52:36;;;;;;;0.43;0.30;;;;;;;6.92;100.00;100288.69;7392061;19;20014;-83
2022/02/25 06:55:02;;;;;;;0.80;0.60;;;;;;;6.96;100.00;100281.81;7391786;19;20018;-83
2022/02/25 06:57:27;;;;;;;1.45;0.70;;;;;;;6.94;100.00;100292.56;7391319;19;20036;-79
2022/02/25 06:59:53;;;;;;;0.10;0.10;;;;;;;7.01;100.00;100305.41;7389021;19;20358;-80
2022/02/25 07:02:18;;;;;;;4.28;0.45;;;;;;;7.03;100.00;100328.69;7388925;19;20017;-81
2022/02/25 07:04:44;;;;;;;0.60;0.30;;;;;;;7.03;100.00;100325.91;7385311;19;20020;-80
2022/02/25 07:07:10;;;;;;;14.00;1.15;;;;;;;7.08;100.00;100328.13;7390988;19;20442;-82
2022/02/25 07:09:35;;;;;;;0.30;0.30;;;;;;;7.09;100.00;100340.78;7389379;19;20386;-80
2022/02/25 07:12:01;;;;;;;5.00;0.50;;;;;;;7.07;100.00;100342.41;7385228;19;20022;-80
2022/02/25 07:14:27;;;;;;;0.90;0.85;;;;;;;7.05;100.00;100351.19;7383199;19;20014;-81
2022/02/25 07:16:52;;;;;;;1.45;1.33;;;;;;;6.91;100.00;100357.09;7390089;19;20683;-80
2022/02/25 07:19:18;;;;;;;0.63;0.63;;;;;;;6.95;100.00;100360.56;7387791;19;20019;-80
2022/02/25 07:21:43;;;;;;;0.35;0.35;;;;;;;6.92;100.00;100366.97;7385756;19;20041;-81
2022/02/25 07:24:09;;;;;;;2.90;1.15;;;;;;;6.90;100.00;100372.19;7389869;19;20021;-91
2022/02/25 07:26:35;;;;;;;0.30;0.30;;;;;;;6.86;100.00;100379.81;7392628;19;20018;-87
2022/02/25 07:29:00;;;;;;;7.68;0.30;;;;;;;6.91;100.00;100393.09;7394435;19;20010;-88
2022/02/25 07:31:26;;;;;;;1.58;0.38;;;;;;;6.98;100.00;100400.44;7393657;19;20762;-88
2022/02/25 07:33:51;;;;;;;1.58;0.38;;;;;;;6.99;100.00;100413.84;7394774;19;20763;-88
2022/02/25 07:36:17;;;;;;;1.10;0.98;;;;;;;6.90;100.00;100410.94;7396345;19;20018;-89
2022/02/25 07:38:42;;;;;;;0.98;0.98;;;;;;;6.89;100.00;100415.69;7397732;19;20022;-88
2022/02/25 07:41:08;;;;;;;4.93;0.80;;;;;;;6.92;100.00;100414.03;7394721;19;20114;-86
2022/02/25 07:43:33;;;;;;;0.47;0.47;;;;;;;7.06;100.00;100423.97;7397737;19;20086;-94
2022/02/25 07:45:59;;;;;;;0.30;0.30;;;;;;;7.27;100.00;100423.34;7395097;19;20018;-88
2022/02/25 07:48:26;;;;;;;0.80;0.80;;;;;;;7.32;100.00;100414.50;7398686;19;20014;-90
2022/02/25 07:50:52;;;;;;;0.10;0.10;;;;;;;7.32;100.00;100420.06;7396336;19;20440;-90
2022/02/25 07:53:18;;;;;;;4.65;1.00;;;;;;;7.33;100.00;100425.16;7396480;19;20041;-90
2022/02/25 07:55:45;;;;;;;1.48;0.73;;;;;;;7.26;100.00;100422.56;7394381;19;20015;-88
2022/02/25 07:58:12;;;;;;;0.20;0.20;;;;;;;7.36;100.00;100438.09;7400237;19;20035;-93
2022/02/25 08:00:38;;;;;;;0.52;0.47;;;;;;;7.34;100.00;100435.00;7401167;19;20035;-91
2022/02/25 08:03:04;;;;;;;3.65;0.38;;;;;;;7.35;100.00;100447.66;7398168;19;20014;-91
2022/02/25 08:05:31;;;;;;;1.00;0.80;;;;;;;7.39;100.00;100442.78;7399377;19;20046;-93
2022/02/25 08:07:57;;;;;;;3.95;0.52;;;;;;;7.35;100.00;100455.19;7399601;19;20017;-93
2022/02/25 08:10:24;;;;;;;9.55;0.57;;;;;;;7.39;100.00;100456.63;7402826;19;20530;-93
2022/02/25 08:12:50;;;;;;;6.75;0.47;;;;;;;7.44;100.00;100461.66;7396421;19;20018;-91
2022/02/25 08:15:15;;;;;;;7.03;0.75;;;;;;;7.44;100.00;100461.66;7395201;19;20346;-93
2022/02/25 08:17:41;;;;;;;5.05;0.93;;;;;;;7.48;100.00;100478.94;7394324;19;20019;-82
2022/02/25 08:20:08;;;;;;;9.27;1.05;;;;;;;7.45;100.00;100477.03;7397140;19;20472;-91
2022/02/25 08:22:34;;;;;;;2.47;0.30;;;;;;;7.36;100.00;100485.19;7399818;19;20029;-85
2022/02/25 08:25:00;;;;;;;2.47;0.70;;;;;;;7.35;100.00;100480.91;7389891;19;20339;-83
2022/02/25 08:27:25;;;;;;;3.90;1.15;;;;;;;7.41;100.00;100490.22;7392752;19;20038;-84
2022/02/25 08:29:51;;;;;;;1.85;0.17;;;;;;;7.41;100.00;100497.75;7397204;19;20007;-85
2022/02/25 08:32:16;;;;;;;0.30;0.20;;;;;;;7.48;100.00;100498.34;7394113;19;20026;-86
2022/02/25 08:34:42;;;;;;;0.57;0.57;;;;;;;7.48;100.00;100503.09;7399034;19;20021;-85
2022/02/25 08:37:08;;;;;;;0.52;0.52;;;;;;;7.49;100.00;100502.66;7401265;19;20022;-85
2022/02/25 08:39:34;;;;;;;0.20;0.20;;;;;;;7.55;100.00;100517.56;7402341;19;20011;-85
2022/02/25 08:42:00;;;;;;;1.58;0.38;;;;;;;7.64;100.00;100520.44;7397224;19;20469;-86
2022/02/25 08:44:25;;;;;;;0.30;0.30;;;;;;;7.63;100.00;100532.75;7397735;19;20072;-85
2022/02/25 08:46:51;;;;;;;18.60;1.40;;;;;;;7.65;100.00;100521.22;7400806;19;20017;-86
2022/02/25 08:49:17;;;;;;;6.32;0.68;;;;;;;7.70;100.00;100531.78;7402355;19;20025;-85
2022/02/25 08:51:43;;;;;;;0.45;0.45;;;;;;;7.83;100.00;100534.56;7403615;19;20050;-85
2022/02/25 08:54:13;;;;;;;1.48;0.73;;;;;;;7.99;100.00;100537.28;7399664;19;20018;-86
2022/02/25 08:56:39;;;;;;;2.75;0.63;;;;;;;8.07;100.00;100535.84;7400328;19;20015;-87
2022/02/25 08:59:05;;;;;;;0.10;0.10;;;;;;;8.04;100.00;100542.25;7401100;19;20021;-88
2022/02/25 09:01:32;;;;;;;0.20;0.20;;;;;;;8.01;100.00;100548.72;7398938;19;20404;-86
2022/02/25 09:04:01;;;;;;;5.30;0.52;;;;;;;8.26;100.00;100557.09;7397287;19;20014;-83
2022/02/25 09:06:28;;;;;;;6.32;1.00;;;;;;;8.34;100.00;100566.75;7399768;19;20496;-88
2022/02/25 09:08:54;;;;;;;7.55;1.02;;;;;;;8.49;100.00;100576.19;7400453;19;20026;-89
2022/02/25 09:11:20;;;;;;;0.20;0.20;;;;;;;8.52;100.00;100572.53;7400170;19;20015;-89
2022/02/25 09:13:45;;;;;;;5.15;1.38;;;;;;;8.53;100.00;100579.66;7399733;19;20021;-88
2022/02/25 09:16:11;;;;;;;0.45;0.40;;;;;;;8.66;100.00;100588.75;7399444;19;20021;-88
2022/02/25 09:18:38;;;;;;;0.13;0.13;;;;;;;8.79;100.00;100592.28;7401134;19;20014;-91
2022/02/25 09:21:04;;;;;;;6.43;1.55;;;;;;;8.88;100.00;100592.38;7399584;19;20106;-89
2022/02/25 09:23:31;;;;;;;2.70;0.95;;;;;;;9.04;100.00;100599.81;7400408;19;20041;-90
2022/02/25 09:25:57;;;;;;;0.30;0.30;;;;;;;9.21;100.00;100600.44;7399287;19;20019;-90
2022/02/25 09:28:24;;;;;;;0.20;0.20;;;;;;;9.24;100.00;100608.69;7405180;19;20043;-89
2022/02/25 09:30:54;;;;;;;10.85;1.05;;;;;;;9.20;100.00;100604.47;7400345;19;20023;-90
2022/02/25 09:33:20;;;;;;;0.10;0.10;;;;;;;9.37;100.00;100608.66;7405409;19;20089;-91
2022/02/25 09:35:49;;;;;;;0.43;0.43;;;;;;;9.59;100.00;100626.16;7401646;19;20021;-90
2022/02/25 09:38:15;;;;;;;0.35;0.35;;;;;;;9.68;100.00;100629.78;7400648;19;20015;-89
2022/02/25 09:40:41;;;;;;;1.17;0.52;;;;;;;9.71;100.00;100628.88;7405564;19;20011;-89
2022/02/25 09:43:07;;;;;;;4.65;0.60;;;;;;;9.74;100.00;100630.00;7398759;19;20472;-89
2022/02/25 09:45:33;;;;;;;5.88;0.90;;;;;;;9.83;100.00;100630.09;7399436;19;20017;-89
2022/02/25 09:48:00;;;;;;;0.30;0.30;;;;;;;9.87;100.00;100637.03;7400884;19;20018;-91
2022/02/25 09:50:26;;;;;;;0.98;0.95;;;;;;;9.74;100.00;100646.69;7401108;19;20078;-91
2022/02/25 09:52:52;;;;;;;2.13;1.38;;;;;;;9.73;100.00;100648.69;7401212;19;20495;-89
2022/02/25 09:55:30;;;;;;;4.93;0.43;;;;;;;9.79;100.00;100668.34;7396129;19;20022;-91
2022/02/25 09:58:00;;;;;;;0.47;0.38;;;;;;;9.85;100.00;100664.53;7396978;19;20018;-89
2022/02/25 10:00:25;;;;;;;1.80;1.08;;;;;;;9.89;100.00;100678.34;7400431;19;20706;-90
2022/02/25 10:02:54;;;;;;;4.03;0.82;;;;;;;9.86;100.00;100684.78;7397152;19;20500;-89
2022/02/25 10:05:22;;;;;;;0.98;0.75;;;;;;;9.84;100.00;100681.69;7397728;19;20022;-89
2022/02/25 10:07:48;;;;;;;9.75;2.20;;;;;;;9.89;100.00;100697.81;7397771;19;20023;-89
2022/02/25 10:10:16;;;;;;;6.90;0.47;;;;;;;9.99;100.00;100699.44;7403346;19;20003;-88
2022/02/25 10:12:54;;;;;;;2.25;1.02;;;;;;;9.99;100.00;100698.66;7399034;19;20022;-89
2022/02/25 10:15:37;;;;;;;2.72;0.43;;;;;;;10.00;100.00;100703.00;7401487;19;20018;-90
2022/02/25 10:18:06;;;;;;;6.85;2.05;;;;;;;10.18;100.00;100701.16;7398170;19;20017;-90
2022/02/25 10:20:32;;;;;;;3.53;0.60;;;;;;;10.32;100.00;100694.31;7398332;19;20053;-91
2022/02/25 10:22:58;;;;;;;1.45;1.00;;;;;;;10.36;100.00;100695.75;7400728;19;20082;-92
2022/02/25 10:25:31;;;;;;;4.22;0.73;;;;;;;10.39;100.00;100694.06;7397585;19;20028;-90
2022/02/25 10:27:56;;;;;;;1.90;0.85;;;;;;;10.40;100.00;100707.53;7397318;19;20014;-91
2022/02/25 10:30:22;;;;;;;14.60;0.95;;;;;;;10.28;100.00;100719.50;7400734;19;20451;-91
2022/02/25 10:32:51;;;;;;;0.25;0.20;;;;;;;10.27;100.00;100715.16;7397986;19;20030;-92
2022/02/25 10:35:33;;;;;;;1.05;0.82;;;;;;;10.34;100.00;100720.47;7398221;19;20078;-91
2022/02/25 10:38:11;;;;;;;3.25;0.60;;;;;;;10.36;100.00;100734.72;7396145;19;20011;-91
2022/02/25 10:40:42;;;;;;;3.60;0.88;;;;;;;10.64;100.00;100730.91;7396992;19;20495;-90
2022/02/25 10:43:23;;;;;;;0.65;0.57;;;;;;;10.93;100.00;100738.97;7394367;19;20028;-91
2022/02/25 10:45:51;;;;;;;3.72;0.50;;;;;;;11.05;100.00;100751.25;7394585;19;20019;-92
2022/02/25 10:48:19;;;;;;;0.93;0.30;;;;;;;11.15;100.00;100755.66;7390424;19;20022;-91
2022/02/25 10:50:54;;;;;;;2.03;1.10;;;;;;;11.13;100.00;100758.13;7397887;19;20039;-91
2022/02/25 10:53:28;;;;;;;1.80;0.73;;;;;;;10.95;100.00;100758.78;7393868;19;20481;-90
2022/02/25 10:56:08;;;;;;;2.72;0.52;;;;;;;10.86;100.00;100766.31;7392153;19;20021;-91
2022/02/25 10:58:47;;;;;;;0.55;0.28;;;;;;;10.84;100.00;100788.28;7393449;19;20026;-91
2022/02/25 11:01:14;;;;;;;0.93;0.50;;;;;;;10.75;100.00;100796.56;7391893;19;20011;-91
2022/02/25 11:03:42;;;;;;;2.42;0.70;;;;;;;10.72;100.00;100794.72;7393481;19;20110;-91
2022/02/25 11:06:09;;;;;;;1.45;1.02;;;;;;;10.82;100.00;100799.09;7392815;19;20014;-90
2022/02/25 11:08:36;;;;;;;4.50;0.85;;;;;;;10.93;100.00;100793.91;7390940;19;20168;-92
2022/02/25 11:11:03;;;;;;;3.17;1.63;;;;;;;11.01;100.00;100790.41;7393711;19;20022;-94
2022/02/25 11:13:30;;;;;;;1.10;1.10;;;;;;;10.96;100.00;100793.78;7393027;19;20026;-94
2022/02/25 11:15:56;;;;;;;3.22;0.93;;;;;;;10.90;100.00;100789.25;7391982;19;20378;-94
2022/02/25 11:18:22;;;;;;;0.40;0.40;;;;;;;10.95;100.00;100797.03;7392055;19;20469;-92
2022/02/25 11:20:50;;;;;;;3.33;1.77;;;;;;;11.00;100.00;100800.00;7396388;19;20031;-92
2022/02/25 11:23:16;;;;;;;0.68;0.68;;;;;;;11.06;100.00;100795.41;7391853;19;20039;-92
2022/02/25 11:25:44;;;;;;;1.00;0.38;;;;;;;11.08;100.00;100806.09;7392248;19;20394;-93
2022/02/25 11:28:11;;;;;;;7.00;0.75;;;;;;;11.10;100.00;100806.41;7392133;19;20022;-92
2022/02/25 11:30:55;;;;;;;4.93;1.20;;;;;;;11.22;100.00;100822.25;7395684;19;20026;-91
2022/02/25 11:33:25;;;;;;;2.67;1.05;;;;;;;11.40;100.00;100822.38;7390859;19;20022;-91